Time;durP1;ratioP1;P1;durP2;ratioP2;P2;SDS_P1;SDS_P2;PMS_P1;PMS_P2;Temp;Humidity;BMP_temperature;BMP_pressure;BME280_temperature;BME280_humidity;BME280_pressure;Samples;Min_cycle;Max_cycle;Signal;HPM_P1;HPM_P2
2022/05/26 00:00:34;;;;;;;11.02;4.72;;;25.40;76.90;;;;;;6214234;23;20012;-83
2022/05/26 00:03:00;;;;;;;10.68;4.90;;;25.40;77.20;;;;;;6213972;23;20008;-82
2022/05/26 00:05:27;;;;;;;14.75;5.20;;;25.30;78.10;;;;;;6214340;23;20035;-83
2022/05/26 00:07:53;;;;;;;14.00;6.20;;;25.30;78.10;;;;;;6214508;23;20000;-83
2022/05/26 00:10:20;;;;;;;11.40;4.90;;;25.30;80.00;;;;;;6213070;23;20075;-82
2022/05/26 00:12:45;;;;;;;14.98;6.22;;;25.30;79.10;;;;;;6214243;23;20314;-82
2022/05/26 00:15:13;;;;;;;19.77;5.45;;;25.30;79.40;;;;;;6213636;23;20400;-83
2022/05/26 00:17:39;;;;;;;13.55;6.80;;;25.30;80.30;;;;;;6213733;23;20004;-83
2022/05/26 00:20:06;;;;;;;11.93;5.90;;;25.20;82.00;;;;;;6187172;23;20466;-81
2022/05/26 00:22:32;;;;;;;14.65;6.13;;;25.10;81.10;;;;;;6212952;23;20011;-83
2022/05/26 00:24:59;;;;;;;15.05;6.03;;;25.10;81.30;;;;;;6213030;23;20004;-83
2022/05/26 00:27:25;;;;;;;16.38;7.03;;;25.10;81.40;;;;;;6213823;23;20007;-82
2022/05/26 00:29:51;;;;;;;12.82;6.38;;;25.10;81.40;;;;;;6213649;23;20024;-82
2022/05/26 00:32:16;;;;;;;13.23;6.50;;;25.10;81.50;;;;;;6213113;23;20005;-82
2022/05/26 00:34:42;;;;;;;13.32;6.70;;;25.10;81.80;;;;;;6213326;23;20012;-83
2022/05/26 00:37:09;;;;;;;19.00;8.98;;;25.10;82.40;;;;;;6212592;23;20082;-82
2022/05/26 00:39:36;;;;;;;16.88;6.88;;;25.00;83.60;;;;;;6186498;23;20031;-82
2022/05/26 00:42:05;;;;;;;11.63;6.38;;;25.00;83.30;;;;;;6187538;23;20079;-82
2022/05/26 00:44:32;;;;;;;10.05;5.63;;;24.90;83.50;;;;;;6213673;23;20005;-80
2022/05/26 00:47:16;;;;;;;12.52;5.93;;;24.90;83.10;;;;;;6214040;23;20005;-81
2022/05/26 00:50:22;;;;;;;13.88;6.53;;;24.80;84.50;;;;;;6213779;23;20027;-81
2022/05/26 00:52:50;;;;;;;19.30;6.65;;;24.80;84.00;;;;;;6066693;23;20378;-82
2022/05/26 00:55:21;;;;;;;19.63;8.80;;;24.80;84.30;;;;;;6194472;23;20009;-82
2022/05/26 00:57:57;;;;;;;13.75;6.40;;;24.80;85.50;;;;;;6213258;23;20039;-81
2022/05/26 01:00:27;;;;;;;13.95;5.80;;;24.60;85.90;;;;;;6212242;23;20023;-81
2022/05/26 01:03:22;;;;;;;14.75;5.63;;;24.60;85.90;;;;;;6212684;23;20012;-81
2022/05/26 01:05:56;;;;;;;13.52;6.00;;;24.50;85.60;;;;;;6212991;23;20004;-81
2022/05/26 01:08:36;;;;;;;16.73;6.80;;;24.50;85.40;;;;;;6213965;23;20000;-81
2022/05/26 01:11:01;;;;;;;;;;;24.60;85.80;;;;;;6214139;23;20012;-81
2022/05/26 01:13:29;;;;;;;14.77;6.28;;;24.50;86.30;;;;;;6213074;23;19930;-81
2022/05/26 01:16:18;;;;;;;13.38;6.10;;;24.50;85.90;;;;;;6212736;23;20011;-81
2022/05/26 01:19:08;;;;;;;12.55;6.10;;;24.50;86.00;;;;;;6185779;23;20335;-81
2022/05/26 01:21:41;;;;;;;11.85;5.85;;;24.50;86.30;;;;;;6213114;23;20009;-80
2022/05/26 01:24:31;;;;;;;23.40;10.35;;;24.50;86.10;;;;;;6213806;23;20011;-80
2022/05/26 01:27:26;;;;;;;12.18;6.32;;;24.50;87.00;;;;;;6213055;23;20392;-81
2022/05/26 01:29:51;;;;;;;14.65;6.50;;;24.50;86.80;;;;;;6185763;23;20070;-82
2022/05/26 01:32:54;;;;;;;13.23;6.55;;;24.50;86.90;;;;;;6212872;23;20047;-82
2022/05/26 01:35:34;;;;;;;19.08;6.50;;;24.50;87.00;;;;;;6176197;23;20035;-81
2022/05/26 01:38:34;;;;;;;15.48;6.45;;;24.40;86.60;;;;;;6213235;23;20004;-81
2022/05/26 01:41:27;;;;;;;13.50;6.22;;;24.40;87.30;;;;;;6213798;23;20343;-81
2022/05/26 01:43:56;;;;;;;21.02;8.48;;;24.40;87.10;;;;;;6211706;23;20011;-81
2022/05/26 01:46:42;;;;;;;15.18;7.00;;;24.40;87.50;;;;;;6185854;23;20435;-80
2022/05/26 01:49:45;;;;;;;14.40;7.07;;;24.30;88.50;;;;;;6185971;23;20004;-80
2022/05/26 01:52:43;;;;;;;15.75;7.25;;;24.30;87.60;;;;;;6186796;23;20076;-80
2022/05/26 01:55:12;;;;;;;13.13;6.60;;;24.40;87.60;;;;;;6213115;23;20470;-80
2022/05/26 01:57:56;;;;;;;13.80;6.40;;;24.40;87.50;;;;;;6213534;23;20055;-79
2022/05/26 02:00:22;;;;;;;19.88;7.97;;;24.40;87.70;;;;;;6212726;23;20020;-80
2022/05/26 02:03:09;;;;;;;16.83;6.78;;;24.40;87.80;;;;;;6212568;23;20342;-80
2022/05/26 02:05:42;;;;;;;13.98;7.10;;;24.30;88.30;;;;;;6212578;23;20427;-80
2022/05/26 02:08:32;;;;;;;12.52;7.22;;;24.30;87.90;;;;;;6212615;23;19997;-81
2022/05/26 02:11:15;;;;;;;12.07;6.22;;;24.30;87.90;;;;;;6212222;23;20374;-80
2022/05/26 02:13:49;;;;;;;21.25;10.27;;;24.30;87.90;;;;;;6212680;23;19997;-82
2022/05/26 02:16:22;;;;;;;13.35;7.15;;;24.30;88.70;;;;;;6186259;23;20009;-80
2022/05/26 02:19:01;;;;;;;17.25;7.70;;;24.30;87.90;;;;;;6211752;23;20000;-80
2022/05/26 02:21:35;;;;;;;17.48;7.90;;;24.30;88.10;;;;;;6212659;23;20005;-81
2022/05/26 02:24:31;;;;;;;14.00;7.35;;;24.30;87.80;;;;;;6212537;23;20004;-80
2022/05/26 02:26:57;;;;;;;13.98;7.78;;;24.30;87.70;;;;;;6202028;23;20060;-79
2022/05/26 02:32:11;;;;;;;22.10;11.50;;;24.20;88.20;;;;;;6214026;23;20023;-80
2022/05/26 02:34:40;;;;;;;13.68;7.85;;;24.10;88.50;;;;;;6214121;23;20007;-82
2022/05/26 02:37:07;;;;;;;20.00;11.88;;;24.10;88.20;;;;;;6214293;23;20003;-82
2022/05/26 02:39:33;;;;;;;13.88;7.93;;;24.10;88.50;;;;;;6213315;23;20008;-82
2022/05/26 02:42:00;;;;;;;13.38;8.60;;;24.00;88.40;;;;;;6215264;23;20029;-82
2022/05/26 02:44:27;;;;;;;21.45;12.05;;;23.90;88.70;;;;;;6216143;23;20005;-82
2022/05/26 02:47:15;;;;;;;30.33;16.75;;;23.90;89.00;;;;;;6189221;23;20024;-82
2022/05/26 02:50:19;;;;;;;15.43;8.95;;;23.80;89.00;;;;;;6215033;23;20031;-82
2022/05/26 02:52:48;;;;;;;17.60;9.57;;;23.80;88.70;;;;;;6209684;23;20011;-82
2022/05/26 02:55:50;;;;;;;16.27;9.45;;;23.70;89.10;;;;;;6215131;23;20012;-81
2022/05/26 02:58:28;;;;;;;13.88;7.55;;;23.70;89.20;;;;;;6216077;23;20004;-81
2022/05/26 03:01:23;;;;;;;17.80;9.52;;;23.80;89.40;;;;;;6215984;23;20013;-81
2022/05/26 03:04:04;;;;;;;21.67;9.73;;;23.80;88.80;;;;;;6215340;23;20408;-81
2022/05/26 03:07:04;;;;;;;26.10;10.77;;;23.80;88.80;;;;;;6215736;23;20005;-81
2022/05/26 03:09:35;;;;;;;29.08;11.98;;;23.80;89.00;;;;;;6150843;23;20028;-82
2022/05/26 03:12:01;;;;;;;19.38;9.85;;;23.80;89.00;;;;;;6215111;23;20004;-82
2022/05/26 03:14:26;;;;;;;37.15;14.77;;;23.80;88.60;;;;;;6215531;23;20072;-81
2022/05/26 03:16:53;;;;;;;51.70;16.88;;;23.80;89.90;;;;;;6215608;23;20080;-82
2022/05/26 03:19:20;;;;;;;29.98;12.88;;;23.70;90.30;;;;;;6216056;23;20032;-81
2022/05/26 03:21:47;;;;;;;37.25;14.25;;;23.70;90.40;;;;;;6188588;23;20059;-81
2022/05/26 03:24:14;;;;;;;63.63;19.83;;;23.50;90.50;;;;;;6189463;23;20015;-81
2022/05/26 03:26:40;;;;;;;42.65;16.33;;;23.50;90.90;;;;;;6190290;23;20337;-81
2022/05/26 03:29:07;;;;;;;65.05;22.48;;;23.50;91.10;;;;;;6215701;23;20066;-82
2022/05/26 03:31:33;;;;;;;40.35;14.82;;;23.40;91.50;;;;;;6215609;23;20004;-84
2022/05/26 03:42:14;;;;;;;66.15;25.33;;;23.60;91.20;;;;;;6215608;23;20143;-82
2022/05/26 03:44:40;;;;;;;42.03;17.83;;;23.50;91.80;;;;;;6215163;23;20005;-81
2022/05/26 03:47:06;;;;;;;41.10;17.35;;;23.50;92.00;;;;;;6188802;23;20001;-80
2022/05/26 03:49:32;;;;;;;56.33;19.83;;;23.50;91.50;;;;;;6214200;23;20007;-81
2022/05/26 03:51:58;;;;;;;44.10;17.65;;;23.60;91.50;;;;;;6187630;23;20015;-82
2022/05/26 03:54:27;;;;;;;41.03;17.23;;;23.60;91.20;;;;;;6215596;23;20419;-80
2022/05/26 03:56:53;;;;;;;46.53;18.67;;;23.70;91.40;;;;;;6215497;23;19996;-80
2022/05/26 03:59:19;;;;;;;45.40;19.25;;;23.70;91.60;;;;;;6215209;23;20001;-80
2022/05/26 04:01:45;;;;;;;36.85;15.95;;;23.70;91.70;;;;;;6214325;23;20000;-80
2022/05/26 04:04:11;;;;;;;37.60;17.25;;;23.70;91.50;;;;;;6215476;23;20490;-80
2022/05/26 04:06:37;;;;;;;49.35;20.35;;;23.70;91.40;;;;;;6214602;23;20087;-79
2022/05/26 04:09:03;;;;;;;34.38;15.38;;;23.70;91.50;;;;;;6215533;23;19996;-79
2022/05/26 04:11:29;;;;;;;44.50;18.38;;;23.80;91.30;;;;;;6214847;23;20382;-80
2022/05/26 04:13:55;;;;;;;37.90;16.20;;;23.80;91.50;;;;;;6214648;23;20000;-81
2022/05/26 04:16:22;;;;;;;34.90;16.40;;;23.80;91.30;;;;;;6215270;23;20027;-81
2022/05/26 04:18:47;;;;;;;38.88;18.45;;;23.80;91.10;;;;;;6187988;23;20332;-80
2022/05/26 04:21:14;;;;;;;66.82;26.13;;;23.80;91.30;;;;;;6214418;23;20001;-81
2022/05/26 04:23:41;;;;;;;34.90;16.13;;;23.70;91.40;;;;;;6215032;23;20000;-81
2022/05/26 04:26:08;;;;;;;34.22;16.98;;;23.70;91.30;;;;;;6188774;23;20031;-82
2022/05/26 04:28:34;;;;;;;30.55;14.50;;;23.70;91.50;;;;;;6214536;23;20001;-82
2022/05/26 04:31:00;;;;;;;30.08;14.63;;;23.80;91.10;;;;;;6214935;23;20008;-82
2022/05/26 04:33:26;;;;;;;27.40;13.98;;;23.80;91.00;;;;;;6214668;23;19997;-83
2022/05/26 04:35:53;;;;;;;29.27;14.20;;;23.90;90.80;;;;;;6213885;23;20005;-83
2022/05/26 04:38:19;;;;;;;33.75;16.05;;;23.90;90.70;;;;;;6215422;23;20001;-82
2022/05/26 04:40:46;;;;;;;44.88;19.55;;;24.00;90.70;;;;;;6187856;23;20102;-83
2022/05/26 04:43:12;;;;;;;26.27;13.98;;;23.90;90.70;;;;;;6213046;23;20015;-82
2022/05/26 04:45:39;;;;;;;29.85;13.65;;;24.00;90.50;;;;;;6188007;23;20087;-82
2022/05/26 04:48:05;;;;;;;27.98;12.85;;;23.90;90.40;;;;;;6214208;23;20036;-82
2022/05/26 04:50:31;;;;;;;26.25;11.55;;;23.90;90.30;;;;;;6214389;23;20003;-82
2022/05/26 04:52:57;;;;;;;21.83;10.57;;;24.00;90.30;;;;;;6187893;23;19993;-82
2022/05/26 04:55:22;;;;;;;30.80;14.43;;;24.00;90.10;;;;;;6213098;23;20000;-83
2022/05/26 04:57:52;;;;;;;25.83;11.43;;;24.10;90.00;;;;;;6212969;23;20005;-82
2022/05/26 05:00:18;;;;;;;21.10;11.13;;;23.90;89.90;;;;;;6213002;23;20028;-83
2022/05/26 05:02:44;;;;;;;20.63;9.18;;;24.00;89.90;;;;;;6213771;23;20005;-83
2022/05/26 05:05:11;;;;;;;21.58;9.43;;;24.00;89.60;;;;;;6214241;23;20010;-83
2022/05/26 05:07:37;;;;;;;15.65;8.80;;;24.00;89.10;;;;;;6214257;23;20005;-83
2022/05/26 05:10:04;;;;;;;19.45;8.70;;;24.00;89.10;;;;;;6212422;23;20011;-82
2022/05/26 05:12:30;;;;;;;23.67;10.85;;;24.00;88.90;;;;;;6213341;23;20047;-82
2022/05/26 05:14:56;;;;;;;15.50;9.07;;;24.00;88.60;;;;;;6213899;23;20424;-83
2022/05/26 05:17:24;;;;;;;21.95;8.98;;;24.00;88.60;;;;;;6214812;23;20004;-79
2022/05/26 05:19:51;;;;;;;14.52;7.65;;;24.00;88.70;;;;;;6214128;23;20167;-91
2022/05/26 05:22:23;;;;;;;16.05;8.50;;;23.90;88.80;;;;;;6215707;23;20000;-90
2022/05/26 05:24:49;;;;;;;16.58;7.82;;;24.00;89.10;;;;;;6215859;23;20001;-91
2022/05/26 05:27:43;;;;;;;15.48;7.22;;;23.90;88.90;;;;;;6215608;23;20011;-89
2022/05/26 05:30:25;;;;;;;17.55;7.82;;;24.00;88.90;;;;;;6213034;23;20019;-86
2022/05/26 05:32:56;;;;;;;17.35;8.00;;;24.00;88.90;;;;;;6214871;23;20003;-88
2022/05/26 05:35:28;;;;;;;18.20;7.65;;;24.00;89.00;;;;;;6214245;23;20359;-86
2022/05/26 05:37:55;;;;;;;13.45;6.78;;;24.10;88.70;;;;;;6214301;23;20015;-87
2022/05/26 05:40:21;;;;;;;14.45;7.50;;;24.10;88.70;;;;;;6213711;23;20371;-87
2022/05/26 05:42:47;;;;;;;16.88;7.20;;;24.10;88.70;;;;;;6212170;23;20080;-83
2022/05/26 05:45:13;;;;;;;25.48;9.10;;;24.10;88.60;;;;;;6185314;23;20147;-84
2022/05/26 05:47:38;;;;;;;13.68;6.75;;;24.20;88.70;;;;;;6213043;23;20041;-83
2022/05/26 05:50:05;;;;;;;19.30;7.10;;;24.10;88.50;;;;;;6212996;23;20000;-82
2022/05/26 05:52:31;;;;;;;13.52;5.93;;;24.20;88.40;;;;;;6213457;23;20001;-82
2022/05/26 05:54:57;;;;;;;13.90;6.13;;;24.30;88.30;;;;;;6212977;23;20055;-85
2022/05/26 05:57:23;;;;;;;17.90;7.95;;;24.30;88.20;;;;;;6186667;23;20462;-85
2022/05/26 05:59:48;;;;;;;17.00;7.53;;;24.30;88.20;;;;;;6211793;23;20016;-84
2022/05/26 06:02:14;;;;;;;13.00;6.78;;;24.40;88.00;;;;;;6186617;23;20005;-83
2022/05/26 06:04:43;;;;;;;20.05;8.45;;;24.40;88.00;;;;;;6213265;23;20024;-81
2022/05/26 06:07:20;;;;;;;14.55;7.47;;;24.40;87.90;;;;;;6214491;23;20078;-81
2022/05/26 06:09:47;;;;;;;12.18;5.38;;;24.40;87.80;;;;;;6213242;23;19997;-81
2022/05/26 06:12:14;;;;;;;14.23;6.95;;;24.40;87.80;;;;;;6213669;23;20008;-81
2022/05/26 06:14:42;;;;;;;14.88;6.85;;;24.50;87.50;;;;;;6214879;23;20475;-81
2022/05/26 06:17:08;;;;;;;12.55;7.40;;;24.60;87.20;;;;;;6215801;23;20000;-81
2022/05/26 06:19:39;;;;;;;15.85;6.95;;;24.50;87.00;;;;;;6216389;23;20038;-79
2022/05/26 06:22:25;;;;;;;18.20;7.90;;;24.50;87.30;;;;;;6189136;23;20005;-79
2022/05/26 06:24:51;;;;;;;12.77;6.22;;;24.40;87.00;;;;;;6214912;23;20083;-79
2022/05/26 06:30:09;;;;;;;13.15;6.78;;;24.40;86.80;;;;;;6213722;23;20022;-82
2022/05/26 06:38:35;;;;;;;16.17;6.00;;;24.70;86.20;;;;;;6216312;23;20383;-83
2022/05/26 06:42:05;;;;;;;15.05;7.18;;;24.70;85.70;;;;;;6189131;23;20005;-83
2022/05/26 06:43:48;;;;;;;11.82;5.82;;;24.80;85.20;;;;;;6216114;23;20013;-83
2022/05/26 06:46:13;;;;;;;14.52;6.60;;;24.80;85.20;;;;;;6215964;23;20040;-80
2022/05/26 06:48:40;;;;;;;17.13;10.00;;;24.80;85.30;;;;;;6215571;23;20008;-80
2022/05/26 06:51:06;;;;;;;14.68;6.47;;;24.50;84.80;;;;;;6215656;23;20000;-79
2022/05/26 06:53:32;;;;;;;12.60;6.45;;;24.50;85.30;;;;;;6216282;23;20403;-80
2022/05/26 06:55:58;;;;;;;12.27;5.72;;;24.70;85.30;;;;;;6215812;23;20083;-83
2022/05/26 06:58:26;;;;;;;14.35;7.07;;;24.70;85.00;;;;;;6216195;23;20407;-83
2022/05/26 07:00:52;;;;;;;11.57;6.97;;;24.80;84.50;;;;;;6215946;23;20016;-80
2022/05/26 07:03:18;;;;;;;15.02;6.75;;;24.80;84.50;;;;;;6216419;23;20001;-81
2022/05/26 07:05:44;;;;;;;9.70;4.75;;;24.80;84.10;;;;;;6216491;23;20012;-80
2022/05/26 07:08:09;;;;;;;9.25;6.10;;;24.80;84.50;;;;;;6216445;23;20027;-80
2022/05/26 07:10:35;;;;;;;9.77;4.78;;;24.90;84.10;;;;;;6216778;23;20007;-81
2022/05/26 07:13:02;;;;;;;8.05;4.93;;;25.00;83.90;;;;;;6215586;23;20032;-80
2022/05/26 07:15:28;;;;;;;9.55;5.20;;;25.00;83.40;;;;;;6188392;23;20040;-83
2022/05/26 07:17:54;;;;;;;17.92;7.82;;;25.10;83.40;;;;;;6214742;23;20005;-83
2022/05/26 07:20:20;;;;;;;10.63;5.28;;;25.10;82.60;;;;;;6215403;23;20010;-83
2022/05/26 07:22:45;;;;;;;13.48;5.55;;;25.20;83.00;;;;;;6215229;23;20012;-83
2022/05/26 07:25:11;;;;;;;10.35;4.82;;;25.30;82.90;;;;;;6215515;23;20040;-84
2022/05/26 07:27:38;;;;;;;14.50;6.85;;;25.30;82.80;;;;;;6214787;23;20008;-84
2022/05/26 07:30:05;;;;;;;11.27;5.60;;;25.30;82.20;;;;;;6187573;23;20009;-80
2022/05/26 07:32:31;;;;;;;7.70;4.35;;;25.30;81.90;;;;;;6189122;23;20424;-81
2022/05/26 07:34:57;;;;;;;23.20;9.02;;;25.40;82.40;;;;;;6214687;23;20039;-84
2022/05/26 07:42:55;;;;;;;13.50;6.13;;;25.40;81.90;;;;;;6214449;23;20066;-80
2022/05/26 07:45:22;;;;;;;13.05;5.60;;;25.50;81.70;;;;;;6184430;23;20004;-83
2022/05/26 07:47:49;;;;;;;9.93;5.45;;;25.50;81.60;;;;;;6187331;23;20009;-82
2022/05/26 07:50:21;;;;;;;10.50;4.32;;;25.60;81.30;;;;;;6213324;23;20009;-80
2022/05/26 07:52:49;;;;;;;12.35;5.40;;;25.70;81.10;;;;;;6213218;23;20028;-79
2022/05/26 07:55:18;;;;;;;14.27;6.05;;;25.70;80.20;;;;;;6187069;23;20043;-83
2022/05/26 07:57:44;;;;;;;16.33;5.45;;;25.80;79.20;;;;;;6186653;23;20008;-82
2022/05/26 08:00:13;;;;;;;20.70;7.15;;;25.80;79.90;;;;;;6212926;23;20016;-84
2022/05/26 08:02:40;;;;;;;13.98;4.70;;;25.70;77.60;;;;;;6187200;23;20012;-84
2022/05/26 08:05:08;;;;;;;8.88;4.32;;;25.80;79.10;;;;;;6188542;23;20129;-82
2022/05/26 08:07:35;;;;;;;12.07;5.25;;;25.80;79.30;;;;;;6214645;23;20445;-84
2022/05/26 08:10:01;;;;;;;18.15;6.60;;;25.90;78.80;;;;;;6188133;23;20423;-82
2022/05/26 08:12:27;;;;;;;9.38;4.25;;;25.90;77.20;;;;;;6215071;23;20001;-82
2022/05/26 08:14:53;;;;;;;12.45;5.50;;;25.90;78.10;;;;;;6188230;23;20012;-83
2022/05/26 08:17:22;;;;;;;6.63;3.95;;;26.00;78.00;;;;;;6212416;23;20071;-82
2022/05/26 08:19:49;;;;;;;9.52;4.88;;;26.10;78.20;;;;;;6214362;23;20028;-81
2022/05/26 08:22:26;;;;;;;10.07;5.28;;;26.20;78.10;;;;;;6213108;23;20000;-84
2022/05/26 08:24:53;;;;;;;12.68;5.80;;;26.30;77.50;;;;;;6214055;23;20028;-83
2022/05/26 08:27:20;;;;;;;13.75;5.15;;;26.40;76.40;;;;;;6214737;23;19997;-79
2022/05/26 08:29:46;;;;;;;10.98;4.60;;;26.40;75.50;;;;;;6214153;23;19997;-83
2022/05/26 08:32:22;;;;;;;8.30;4.35;;;26.50;75.10;;;;;;6213261;23;20051;-81
2022/05/26 08:34:49;;;;;;;8.27;4.03;;;26.50;75.50;;;;;;6185915;23;20419;-81
2022/05/26 08:37:18;;;;;;;12.27;4.72;;;26.50;75.50;;;;;;6213644;23;20001;-84
2022/05/26 08:39:44;;;;;;;12.25;4.90;;;26.60;75.40;;;;;;6186757;23;20416;-84
2022/05/26 08:42:19;;;;;;;13.40;5.47;;;26.70;74.30;;;;;;6212480;23;20054;-84
2022/05/26 08:44:45;;;;;;;8.77;4.00;;;26.70;71.60;;;;;;6212910;23;20012;-84
2022/05/26 08:47:16;;;;;;;11.00;4.05;;;26.80;71.30;;;;;;6213757;23;19996;-84
2022/05/26 08:49:52;;;;;;;8.07;3.92;;;26.80;72.40;;;;;;6214762;23;20580;-86
2022/05/26 08:52:49;;;;;;;7.78;3.88;;;26.90;73.30;;;;;;6213915;23;20072;-84
2022/05/26 08:55:29;;;;;;;9.80;3.97;;;26.90;71.60;;;;;;6211975;23;20005;-82
2022/05/26 08:58:06;;;;;;;6.15;3.45;;;26.90;70.50;;;;;;6212642;23;20005;-84
2022/05/26 09:00:34;;;;;;;6.88;3.63;;;26.90;71.00;;;;;;6213577;23;20023;-85
2022/05/26 09:03:01;;;;;;;7.13;3.10;;;27.00;71.60;;;;;;6188185;23;20482;-86
2022/05/26 09:05:36;;;;;;;6.65;3.20;;;27.10;70.00;;;;;;6213885;23;20004;-85
2022/05/26 09:13:57;;;;;;;10.15;3.60;;;27.20;66.80;;;;;;6211857;23;20051;-81
2022/05/26 09:16:23;;;;;;;8.05;2.88;;;27.20;65.80;;;;;;6213889;23;20682;-81
2022/05/26 09:19:12;;;;;;;6.78;2.83;;;27.30;67.30;;;;;;6214675;23;20011;-81
2022/05/26 09:21:38;;;;;;;5.03;2.47;;;27.30;64.20;;;;;;6214599;23;20032;-82
2022/05/26 09:24:24;;;;;;;4.18;2.13;;;27.40;66.80;;;;;;6214471;23;20094;-85
2022/05/26 09:27:03;;;;;;;7.65;2.72;;;27.40;66.80;;;;;;6213916;23;20012;-85
2022/05/26 09:29:31;;;;;;;4.45;2.33;;;27.50;66.10;;;;;;6214664;23;20001;-85
2022/05/26 09:31:59;;;;;;;3.83;2.35;;;27.50;66.80;;;;;;6214887;23;20079;-85
2022/05/26 09:34:34;;;;;;;4.93;2.47;;;27.60;66.50;;;;;;6214829;23;20008;-85
2022/05/26 09:37:03;;;;;;;9.15;3.50;;;27.80;67.00;;;;;;6215499;23;20469;-86
2022/05/26 09:39:37;;;;;;;7.47;2.73;;;27.80;63.00;;;;;;6215008;23;20059;-85
2022/05/26 09:42:23;;;;;;;4.95;2.40;;;27.80;65.20;;;;;;6214983;23;20005;-83
2022/05/26 09:45:04;;;;;;;5.75;2.80;;;27.80;65.40;;;;;;6194354;23;20035;-85
2022/05/26 09:47:32;;;;;;;7.32;3.30;;;27.90;65.30;;;;;;6215297;23;20043;-85
2022/05/26 09:50:00;;;;;;;6.13;3.20;;;27.90;64.70;;;;;;6212339;23;20000;-87
2022/05/26 09:52:40;;;;;;;6.15;3.63;;;28.00;65.60;;;;;;6215242;23;20001;-82
2022/05/26 09:55:09;;;;;;;5.10;2.72;;;28.10;64.80;;;;;;6213937;23;20011;-83
2022/05/26 09:57:35;;;;;;;5.82;2.72;;;28.20;65.30;;;;;;6187727;23;20087;-82
2022/05/26 10:00:01;;;;;;;5.43;2.67;;;28.30;64.90;;;;;;6212200;23;20016;-82
2022/05/26 10:02:35;;;;;;;8.50;3.58;;;28.30;64.40;;;;;;6214429;23;20020;-82
2022/05/26 10:05:13;;;;;;;8.30;3.83;;;28.40;63.00;;;;;;6214829;23;20291;-81
2022/05/26 10:08:15;;;;;;;12.63;4.00;;;28.30;61.90;;;;;;6214646;23;20486;-86
2022/05/26 10:10:52;;;;;;;8.50;3.10;;;28.10;62.90;;;;;;6213626;23;20004;-83
2022/05/26 10:13:38;;;;;;;5.40;2.53;;;28.20;63.70;;;;;;6213363;23;19996;-84
2022/05/26 10:16:12;;;;;;;9.00;2.97;;;28.40;64.20;;;;;;6207544;23;20004;-84
2022/05/26 10:19:16;;;;;;;8.73;3.28;;;28.50;62.90;;;;;;6213766;23;20001;-84
2022/05/26 10:21:52;;;;;;;7.20;3.45;;;28.60;61.80;;;;;;6213323;23;20005;-85
2022/05/26 10:24:53;;;;;;;6.47;2.95;;;28.70;62.10;;;;;;6213983;23;20005;-84
2022/05/26 10:27:54;;;;;;;10.48;3.00;;;28.50;60.70;;;;;;6148046;23;20323;-86
2022/05/26 10:30:47;;;;;;;5.68;2.80;;;28.50;61.60;;;;;;6113133;23;20001;-87
2022/05/26 10:33:45;;;;;;;6.47;3.17;;;28.70;62.30;;;;;;6214832;23;19997;-87
2022/05/26 10:36:19;;;;;;;8.18;3.42;;;28.90;61.50;;;;;;6214608;23;20004;-87
2022/05/26 10:38:54;;;;;;;4.55;2.58;;;29.00;60.60;;;;;;6214722;23;20092;-87
2022/05/26 10:41:40;;;;;;;8.35;3.15;;;29.20;60.90;;;;;;6214332;23;20028;-87
2022/05/26 10:44:13;;;;;;;6.90;3.10;;;29.20;59.70;;;;;;6188301;23;20108;-86
2022/05/26 10:46:45;;;;;;;3.40;2.13;;;29.20;60.30;;;;;;6213294;23;20009;-85
2022/05/26 10:49:38;;;;;;;7.63;3.13;;;29.40;61.00;;;;;;6214481;23;20007;-86
2022/05/26 10:52:25;;;;;;;3.75;2.35;;;29.60;60.50;;;;;;6213180;23;20015;-86
2022/05/26 10:54:56;;;;;;;5.03;2.22;;;29.80;61.00;;;;;;6208697;23;20004;-86
2022/05/26 10:57:38;;;;;;;7.20;3.05;;;30.00;60.50;;;;;;6215003;23;20079;-86
2022/05/26 11:00:10;;;;;;;6.78;2.90;;;30.20;59.30;;;;;;6214692;23;20017;-86
2022/05/26 11:02:43;;;;;;;6.97;3.25;;;30.20;59.10;;;;;;6216079;23;20000;-87
2022/05/26 11:05:14;;;;;;;3.65;2.33;;;30.30;57.50;;;;;;6217064;23;20005;-86
2022/05/26 11:07:59;;;;;;;6.13;2.78;;;30.40;57.80;;;;;;6215700;23;20639;-85
2022/05/26 11:10:31;;;;;;;5.57;2.38;;;30.50;55.80;;;;;;6188516;23;20008;-85
2022/05/26 11:13:17;;;;;;;3.13;2.13;;;30.60;56.90;;;;;;6214324;23;20008;-85
2022/05/26 11:18:44;;;;;;;8.90;3.60;;;31.10;56.70;;;;;;6214756;23;20354;-85
2022/05/26 11:21:17;;;;;;;5.50;2.88;;;31.00;56.60;;;;;;6214962;23;20028;-85
2022/05/26 11:23:42;;;;;;;51.05;43.83;;;31.10;57.70;;;;;;6215459;23;20087;-84
2022/05/26 11:26:28;;;;;;;64.68;58.20;;;31.20;57.50;;;;;;6216176;23;20082;-88
2022/05/26 11:29:05;;;;;;;107.07;96.60;;;31.20;57.30;;;;;;6194010;23;20408;-79
2022/05/26 11:37:28;;;;;;;6.97;4.35;;;31.20;57.50;;;;;;6215505;23;20070;-80
2022/05/26 11:40:02;;;;;;;7.05;2.97;;;31.30;57.60;;;;;;6215935;23;20009;-80
2022/05/26 11:42:34;;;;;;;4.50;2.58;;;31.20;57.10;;;;;;6216506;23;20005;-78
2022/05/26 11:45:09;;;;;;;4.45;2.53;;;31.20;57.00;;;;;;6216199;23;20008;-88
2022/05/26 11:47:52;;;;;;;7.28;2.67;;;31.40;57.70;;;;;;6214769;23;20071;-85
2022/05/26 11:50:39;;;;;;;3.78;2.22;;;31.70;57.20;;;;;;6214653;23;20024;-84
2022/05/26 11:53:10;;;;;;;5.50;2.35;;;31.90;56.30;;;;;;6216389;22;20977;-82
2022/05/26 11:55:52;;;;;;;3.58;2.33;;;32.20;55.50;;;;;;6244892;23;20039;-81
2022/05/26 11:58:37;;;;;;;5.97;2.55;;;32.30;55.10;;;;;;6245308;23;20377;-81
2022/05/26 12:01:25;;;;;;;4.70;2.20;;;32.40;55.10;;;;;;6218243;23;20004;-82
2022/05/26 12:03:51;;;;;;;4.63;2.53;;;32.60;54.60;;;;;;6245101;23;20475;-85
2022/05/26 12:06:33;;;;;;;5.43;2.40;;;32.70;55.00;;;;;;6244725;23;20016;-85
2022/05/26 12:09:05;;;;;;;4.43;2.40;;;32.70;54.00;;;;;;6218905;23;20004;-86
2022/05/26 12:11:59;;;;;;;4.75;2.53;;;32.70;54.50;;;;;;6216939;23;20410;-82
2022/05/26 12:14:30;;;;;;;6.47;2.50;;;32.60;53.50;;;;;;6246443;23;19995;-86
2022/05/26 12:17:30;;;;;;;7.72;2.78;;;32.70;53.90;;;;;;6246149;23;20072;-81
2022/05/26 12:20:05;;;;;;;5.93;2.38;;;32.70;53.90;;;;;;6246096;23;20073;-81
2022/05/26 12:22:36;;;;;;;4.93;2.35;;;32.60;53.50;;;;;;6244568;23;20454;-81
2022/05/26 12:25:16;;;;;;;6.78;2.58;;;32.60;54.60;;;;;;6246152;23;20504;-82
2022/05/26 12:28:00;;;;;;;7.65;2.72;;;32.50;54.90;;;;;;6245978;23;20431;-82
2022/05/26 12:30:44;;;;;;;5.18;2.30;;;32.30;56.40;;;;;;6244890;23;20035;-82
2022/05/26 12:33:21;;;;;;;9.25;2.90;;;32.20;55.50;;;;;;6244927;23;20004;-83
2022/05/26 12:36:08;;;;;;;3.85;2.13;;;32.10;55.10;;;;;;6245011;23;20055;-81
2022/05/26 12:38:51;;;;;;;9.45;2.10;;;32.20;55.90;;;;;;6237676;23;20358;-81
2022/05/26 12:41:48;;;;;;;3.33;1.98;;;32.20;55.80;;;;;;6215641;23;20008;-81
2022/05/26 12:44:27;;;;;;;6.03;2.40;;;32.20;55.80;;;;;;6217272;23;20583;-83
2022/05/26 12:46:58;;;;;;;4.32;2.25;;;32.40;55.40;;;;;;6216918;23;20058;-84
2022/05/26 12:50:00;;;;;;;7.25;2.50;;;32.50;55.20;;;;;;6243629;23;20000;-82
2022/05/26 12:52:59;;;;;;;6.03;2.47;;;32.50;54.30;;;;;;6216865;23;20054;-82
2022/05/26 12:55:43;;;;;;;;;;;32.60;53.90;;;;;;6244646;23;20022;-83
2022/05/26 12:58:15;;;;;;;5.32;2.40;;;32.70;54.10;;;;;;6243527;23;19969;-85
2022/05/26 13:00:58;;;;;;;6.03;2.60;;;32.80;54.30;;;;;;6242373;23;20340;-81
2022/05/26 13:03:40;;;;;;;7.40;2.75;;;32.80;54.30;;;;;;6242910;23;20060;-84
2022/05/26 13:06:28;;;;;;;7.72;3.22;;;33.10;53.00;;;;;;6243312;23;20032;-83
2022/05/26 13:08:56;;;;;;;5.45;2.92;;;33.20;53.20;;;;;;6216330;23;20005;-84
2022/05/26 13:11:26;;;;;;;9.02;3.65;;;33.00;52.80;;;;;;6242482;23;20011;-83
2022/05/26 13:14:00;;;;;;;4.82;2.53;;;32.80;54.00;;;;;;6244596;23;20011;-80
2022/05/26 13:16:29;;;;;;;8.15;3.05;;;32.80;53.60;;;;;;6243948;23;20007;-81
2022/05/26 13:19:04;;;;;;;5.07;2.05;;;32.80;52.70;;;;;;6217799;23;20034;-80
2022/05/26 13:21:30;;;;;;;5.13;2.17;;;32.50;53.70;;;;;;6243792;23;20000;-81
2022/05/26 13:23:56;;;;;;;4.07;2.00;;;32.30;53.40;;;;;;6244067;23;20027;-80
2022/05/26 13:26:23;;;;;;;5.18;2.47;;;32.00;54.10;;;;;;6243300;23;20426;-81
2022/05/26 13:28:59;;;;;;;4.28;2.30;;;31.70;53.90;;;;;;6244937;23;20001;-81
2022/05/26 13:34:12;;;;;;;8.55;2.45;;;31.40;54.20;;;;;;6244577;23;20476;-81
2022/05/26 13:36:42;;;;;;;6.72;2.22;;;31.20;54.40;;;;;;6244046;23;20063;-83
2022/05/26 13:39:26;;;;;;;4.32;2.22;;;31.10;54.80;;;;;;6244775;23;20284;-83
2022/05/26 13:41:55;;;;;;;7.57;2.45;;;31.00;55.30;;;;;;6243815;23;20058;-84
2022/05/26 13:44:36;;;;;;;4.82;2.22;;;30.90;55.10;;;;;;6243928;23;20083;-84
2022/05/26 13:47:06;;;;;;;7.88;2.58;;;30.80;55.60;;;;;;6244111;23;20014;-82
2022/05/26 13:49:38;;;;;;;;;;;30.60;56.60;;;;;;6245686;23;20072;-84
2022/05/26 13:52:35;;;;;;;8.05;3.60;;;30.50;58.80;;;;;;6217725;23;19907;-83
2022/05/26 13:55:17;;;;;;;6.03;3.30;;;30.40;59.00;;;;;;6271186;22;20064;-83